Strona główna
METAR-TAF:

METAR-TAF

Lotnisko :

Port lotniczy Shoreham

Brighton, Anglia

Szerokość geograficzna: 50-50N, Długość geograficzna: 000-17W, wysokość: 2 m

Aktualna obserwacja pogody

Raport powstał 17 minut temu, godzina 18:50 UTC
Wiatr 6 kt od zachód
Temperatura 9°C
Wilgotność 87%
Ciśnienie 1001 hPa
Widzialność 10 km lub więcej
Brak chmur poniżej 1500 m i brak chmur cumulonimbus

METAR: EGKA 261850Z 27006KT CAVOK 09/07 Q1001

czas: 19:07 (19:07 UTC)

Prognoza

Raport powstał 5 godziny i 14 minut temu, godzina 13:53 UTC
Prognoza ważna od 26 godzina 15 UTC do 26 godzina 19 UTC
Wiatr 10 kt od zachód
Widzialność 10 km lub więcej
Mało chmury na wysokości 3000 ft
Przejściowo
od 26 godzina 15 UTC do 26 godzina 19 UTC
Widzialność: 7000 m
przelotny opad deszczu

TAF: EGKA 261353Z 2615/2619 26010KT 9999 FEW030 TEMPO 2615/2619 7000 SHRA

Obserwacja i prognoza pogody dla ponad 4000 lotnisk (raport METAR i TAF).

Dostępne stacje oznaczono żółtymi i czerwonymi punktami na mapie.

Najedź kursorem aby zobaczyć nazwę stacji.

Kliknij aby zobaczyć obserwacje i prognozy pogody.

Aby zmienić mapę: kliknij na zielony przycisk z czarnym krzyżykiem, aby powiększyć; na zielony przycisk z myślnikiem, aby pomniejszyć; na zielone strzałki, aby przejść do map sąsiednich.


METAR-TAF: